Time;durP1;ratioP1;P1;durP2;ratioP2;P2;SDS_P1;SDS_P2;PMS_P1;PMS_P2;Temp;Humidity;BMP_temperature;BMP_pressure;BME280_temperature;BME280_humidity;BME280_pressure;Samples;Min_cycle;Max_cycle;Signal;HPM_P1;HPM_P2
2022/09/16 00:00:48;;;;;;;;;;;;;;;26.98;nan;100511.94;5033851;28;1205;-35
2022/09/16 00:03:16;;;;;;;;;;;;;;;26.98;nan;100511.94;5034373;28;1950;-31
2022/09/16 00:05:44;;;;;;;;;;;;;;;26.97;nan;100510.25;5034277;28;1302;-35
2022/09/16 00:08:11;;;;;;;;;;;;;;;26.98;nan;100511.09;5033689;28;1105;-35
2022/09/16 00:10:37;;;;;;;;;;;;;;;26.99;nan;100507.44;5032939;28;1209;-34
2022/09/16 00:13:04;;;;;;;;;;;;;;;26.98;nan;100501.25;5033959;28;1289;-31
2022/09/16 00:15:32;;;;;;;;;;;;;;;26.98;nan;100506.59;5033556;28;1297;-32
2022/09/16 00:17:58;;;;;;;;;;;;;;;26.97;nan;100507.56;5033843;28;1043;-34
2022/09/16 00:20:25;;;;;;;;;;;;;;;26.97;nan;100496.88;5033242;28;1291;-33
2022/09/16 00:22:52;;;;;;;;;;;;;;;26.97;nan;100509.41;5033758;28;1981;-33
2022/09/16 00:25:18;;;;;;;;;;;;;;;26.97;nan;100507.56;5033654;28;1250;-33
2022/09/16 00:27:48;;;;;;;;;;;;;;;26.99;nan;100507.44;5033607;28;1245;-35
2022/09/16 00:30:15;;;;;;;;;;;;;;;26.98;nan;100497.72;5065280;28;1212;-32
2022/09/16 00:32:42;;;;;;;;;;;;;;;26.98;nan;100501.25;5033576;28;1491;-34
2022/09/16 00:35:09;;;;;;;;;;;;;;;26.98;nan;100501.25;5033586;28;1300;-33
2022/09/16 00:37:36;;;;;;;;;;;;;;;26.98;nan;100505.75;5033792;28;926;-34
2022/09/16 00:40:03;;;;;;;;;;;;;;;26.97;nan;100498.72;5033276;28;1230;-33
2022/09/16 00:42:29;;;;;;;;;;;;;;;26.98;nan;100497.72;5033393;28;1987;-38
2022/09/16 00:44:58;;;;;;;;;;;;;;;26.96;nan;100489.03;5033118;28;1185;-34
2022/09/16 00:47:31;;;;;;;;;;;;;;;26.97;nan;100488.03;5033333;28;1126;-31
2022/09/16 00:50:09;;;;;;;;;;;;;;;26.97;nan;100488.88;5033177;28;1576;-33
2022/09/16 00:52:37;;;;;;;;;;;;;;;26.98;nan;100493.22;5033574;28;1138;-33
2022/09/16 00:55:06;;;;;;;;;;;;;;;26.97;nan;100488.03;5033082;28;1209;-35
2022/09/16 00:57:33;;;;;;;;;;;;;;;26.96;nan;100483.69;5033209;28;1031;-35
2022/09/16 01:00:00;;;;;;;;;;;;;;;26.96;nan;100489.03;5033038;28;1221;-35
2022/09/16 01:02:27;;;;;;;;;;;;;;;26.96;nan;100483.69;5032925;28;1996;-35
2022/09/16 01:05:03;;;;;;;;;;;;;;;26.97;nan;100480.84;5032711;28;1311;-35
2022/09/16 01:07:30;;;;;;;;;;;;;;;26.97;nan;100483.53;5033153;28;1041;-31
2022/09/16 01:09:57;;;;;;;;;;;;;;;26.97;nan;100480.00;5032962;28;1201;-34
2022/09/16 01:12:26;;;;;;;;;;;;;;;26.97;nan;100477.31;5033126;28;1122;-30
2022/09/16 01:14:53;;;;;;;;;;;;;;;26.95;nan;100479.31;5032692;28;1206;-32
2022/09/16 01:17:26;;;;;;;;;;;;;;;26.95;nan;100479.31;5032829;28;923;-34
2022/09/16 01:20:05;;;;;;;;;;;;;;;26.95;nan;100474.81;5032821;28;1209;-31
2022/09/16 01:22:44;;;;;;;;;;;;;;;26.94;nan;100478.47;5032907;28;1918;-34
2022/09/16 01:25:27;;;;;;;;;;;;;;;26.94;nan;100482.97;5032290;28;1376;-30
2022/09/16 01:28:14;;;;;;;;;;;;;;;26.93;nan;100481.31;5032847;28;1010;-34
2022/09/16 01:30:51;;;;;;;;;;;;;;;26.93;nan;100482.13;5032846;28;1323;-32
2022/09/16 01:33:27;;;;;;;;;;;;;;;26.93;nan;100479.44;5033061;28;1123;-33
2022/09/16 01:36:06;;;;;;;;;;;;;;;26.93;nan;100483.97;5032599;28;1219;-34
2022/09/16 01:38:35;;;;;;;;;;;;;;;26.92;nan;100479.59;5032999;28;1193;-34
2022/09/16 01:41:11;;;;;;;;;;;;;;;26.91;nan;100475.25;5032873;28;1186;-31
2022/09/16 01:43:49;;;;;;;;;;;;;;;26.91;nan;100468.06;5032952;28;1914;-34
2022/09/16 01:46:26;;;;;;;;;;;;;;;26.91;nan;100472.56;5034036;28;1209;-34
2022/09/16 01:49:00;;;;;;;;;;;;;;;26.91;nan;100475.25;5036465;28;1610;-32
2022/09/16 01:51:40;;;;;;;;;;;;;;;26.91;nan;100477.91;5036520;28;1375;-34
2022/09/16 01:54:10;;;;;;;;;;;;;;;26.91;nan;100477.91;5036787;28;914;-33
2022/09/16 01:56:47;;;;;;;;;;;;;;;26.90;nan;100471.72;5036416;28;1221;-34
2022/09/16 01:59:23;;;;;;;;;;;;;;;26.92;nan;100476.94;5036443;28;890;-34
2022/09/16 02:01:50;;;;;;;;;;;;;;;26.90;nan;100466.38;5035893;28;1910;-32
2022/09/16 02:04:21;;;;;;;;;;;;;;;26.91;nan;100468.06;5035534;28;1276;-33
2022/09/16 02:06:49;;;;;;;;;;;;;;;26.94;nan;100464.25;5036331;28;1121;-34
2022/09/16 02:09:20;;;;;;;;;;;;;;;26.92;nan;100463.56;5036160;28;667;-33
2022/09/16 02:11:49;;;;;;;;;;;;;;;26.92;nan;100463.56;5036184;28;1032;-33
2022/09/16 02:14:24;;;;;;;;;;;;;;;26.90;nan;100461.03;5036139;28;887;-31
2022/09/16 02:16:57;;;;;;;;;;;;;;;26.91;nan;100457.38;5036245;28;1098;-34
2022/09/16 02:19:27;;;;;;;;;;;;;;;26.91;nan;100461.88;5035927;28;1296;-35
2022/09/16 02:21:54;;;;;;;;;;;;;;;26.90;nan;100460.22;5036073;28;1985;-35
2022/09/16 02:24:23;;;;;;;;;;;;;;;26.89;nan;100463.88;5035867;28;1221;-32
2022/09/16 02:27:01;;;;;;;;;;;;;;;26.88;nan;100467.53;5035630;28;1040;-35
2022/09/16 02:29:35;;;;;;;;;;;;;;;26.89;nan;100463.88;5035712;28;1396;-35
2022/09/16 02:32:05;;;;;;;;;;;;;;;26.88;nan;100471.03;5035741;28;1010;-35
2022/09/16 02:34:36;;;;;;;;;;;;;;;26.90;nan;100471.72;5035646;28;1295;-35
2022/09/16 02:37:07;;;;;;;;;;;;;;;26.87;nan;100472.00;5035828;28;1050;-34
2022/09/16 02:39:36;;;;;;;;;;;;;;;26.89;nan;100474.56;5035406;28;1291;-36
2022/09/16 02:42:03;;;;;;;;;;;;;;;26.88;nan;100472.88;5035852;28;1975;-33
2022/09/16 02:44:30;;;;;;;;;;;;;;;26.87;nan;100471.19;5035513;28;1209;-35
2022/09/16 02:47:02;;;;;;;;;;;;;;;26.88;nan;100470.19;5035571;28;1033;-33
2022/09/16 02:49:52;;;;;;;;;;;;;;;26.89;nan;100469.22;5035474;28;1519;-36
2022/09/16 02:52:25;;;;;;;;;;;;;;;26.90;nan;100476.25;5035432;28;991;-36
2022/09/16 02:55:10;;;;;;;;;;;;;;;26.88;nan;100473.72;5034025;28;1205;-35
2022/09/16 02:57:37;;;;;;;;;;;;;;;26.87;nan;100472.00;5033597;28;1061;-33
2022/09/16 03:00:05;;;;;;;;;;;;;;;26.87;nan;100468.53;5034361;28;1174;-35
2022/09/16 03:02:32;;;;;;;;;;;;;;;26.87;nan;100471.19;5034253;28;1918;-31
2022/09/16 03:04:59;;;;;;;;;;;;;;;26.88;nan;100464.84;5034825;28;1217;-35
2022/09/16 03:07:26;;;;;;;;;;;;;;;26.88;nan;100467.53;5034163;28;1046;-34
2022/09/16 03:09:53;;;;;;;;;;;;;;;26.88;nan;100463.03;5034968;28;1288;-35
2022/09/16 03:12:22;;;;;;;;;;;;;;;26.88;nan;100465.69;5035503;28;1124;-33
2022/09/16 03:14:58;;;;;;;;;;;;;;;26.88;nan;100468.38;5035256;28;1598;-32
2022/09/16 03:17:30;;;;;;;;;;;;;;;26.87;nan;100469.34;5046784;28;1740;-35
2022/09/16 03:19:57;;;;;;;;;;;;;;;26.88;nan;100472.88;5040601;28;1284;-31
2022/09/16 03:22:47;;;;;;;;;;;;;;;26.87;nan;100472.00;5045537;28;1917;-32
2022/09/16 03:25:30;;;;;;;;;;;;;;;26.86;nan;100466.84;5055098;28;1237;-35
2022/09/16 03:28:00;;;;;;;;;;;;;;;26.88;nan;100478.22;5055207;28;1122;-34
2022/09/16 03:30:31;;;;;;;;;;;;;;;26.88;nan;100473.72;5071243;28;1374;-36
2022/09/16 03:33:02;;;;;;;;;;;;;;;26.89;nan;100477.22;5034900;28;1081;-34
2022/09/16 03:35:32;;;;;;;;;;;;;;;26.88;nan;100471.03;5034411;28;1292;-36
2022/09/16 03:38:00;;;;;;;;;;;;;;;26.88;nan;100472.88;5034699;28;986;-35
2022/09/16 03:40:28;;;;;;;;;;;;;;;26.86;nan;100462.34;5034757;28;1221;-34
2022/09/16 03:42:56;;;;;;;;;;;;;;;26.87;nan;100469.34;5053878;28;2006;-35
2022/09/16 03:45:23;;;;;;;;;;;;;;;26.86;nan;100470.34;5054678;28;1296;-35
2022/09/16 03:47:51;;;;;;;;;;;;;;;26.87;nan;100472.00;5054453;28;1123;-35
2022/09/16 03:50:19;;;;;;;;;;;;;;;26.88;nan;100470.19;5054119;28;1735;-31
2022/09/16 03:52:45;;;;;;;;;;;;;;;26.87;nan;100471.19;5054381;28;1085;-35
2022/09/16 03:55:12;;;;;;;;;;;;;;;26.87;nan;100473.88;5054369;28;1279;-33
2022/09/16 03:57:39;;;;;;;;;;;;;;;26.88;nan;100472.88;5054598;28;1030;-35
2022/09/16 04:00:06;;;;;;;;;;;;;;;26.88;nan;100475.53;5053840;28;1185;-35
2022/09/16 04:02:34;;;;;;;;;;;;;;;26.86;nan;100469.50;5053363;28;1980;-35
2022/09/16 04:05:01;;;;;;;;;;;;;;;26.84;nan;100471.50;5053674;28;1213;-34
2022/09/16 04:07:27;;;;;;;;;;;;;;;26.84;nan;100477.66;5039365;28;1016;-35
2022/09/16 04:09:54;;;;;;;;;;;;;;;26.85;nan;100473.16;5033862;28;1225;-35
2022/09/16 04:12:21;;;;;;;;;;;;;;;26.83;nan;100475.13;5033837;28;1077;-32
2022/09/16 04:14:48;;;;;;;;;;;;;;;26.85;nan;100474.00;5033928;28;1271;-34
2022/09/16 04:17:14;;;;;;;;;;;;;;;26.86;nan;100482.88;5033985;28;946;-35
2022/09/16 04:19:41;;;;;;;;;;;;;;;26.86;nan;100472.19;5033691;28;1197;-36
2022/09/16 04:22:07;;;;;;;;;;;;;;;26.85;nan;100473.16;5033803;28;1128;-35
2022/09/16 04:24:34;;;;;;;;;;;;;;;26.85;nan;100473.16;5033711;28;1914;-31
2022/09/16 04:27:01;;;;;;;;;;;;;;;26.85;nan;100484.69;5034046;28;1027;-35
2022/09/16 04:29:28;;;;;;;;;;;;;;;26.85;nan;100483.84;5033933;28;1193;-33
2022/09/16 04:31:55;;;;;;;;;;;;;;;26.83;nan;100478.66;5033720;28;918;-33
2022/09/16 04:34:21;;;;;;;;;;;;;;;26.83;nan;100477.81;5034003;28;1217;-33
2022/09/16 04:36:48;;;;;;;;;;;;;;;26.84;nan;100474.16;5033968;28;1112;-33
2022/09/16 04:39:15;;;;;;;;;;;;;;;26.85;nan;100478.50;5033970;28;805;-35
2022/09/16 04:41:44;;;;;;;;;;;;;;;26.83;nan;100483.16;5034350;28;1042;-35
2022/09/16 04:44:11;;;;;;;;;;;;;;;26.82;nan;100478.78;5034123;28;1987;-35
2022/09/16 04:46:38;;;;;;;;;;;;;;;26.80;nan;100473.59;5033643;28;1574;-34
2022/09/16 04:49:05;;;;;;;;;;;;;;;26.82;nan;100478.78;5033238;28;1647;-30
2022/09/16 04:51:32;;;;;;;;;;;;;;;26.82;nan;100478.78;5080850;28;1284;-34
2022/09/16 04:53:58;;;;;;;;;;;;;;;26.83;nan;100469.78;5053546;28;902;-30
2022/09/16 04:56:26;;;;;;;;;;;;;;;26.82;nan;100473.44;5044785;28;1481;-33
2022/09/16 04:58:54;;;;;;;;;;;;;;;26.82;nan;100471.63;5040511;28;931;-32
2022/09/16 05:01:23;;;;;;;;;;;;;;;26.83;nan;100469.78;5053367;28;1223;-31
2022/09/16 05:03:51;;;;;;;;;;;;;;;26.80;nan;100470.09;5045066;28;1965;-33
2022/09/16 05:06:19;;;;;;;;;;;;;;;26.81;nan;100471.78;5033344;28;1217;-35
2022/09/16 05:08:47;;;;;;;;;;;;;;;26.80;nan;100470.94;5033307;28;1094;-34
2022/09/16 05:11:18;;;;;;;;;;;;;;;26.81;nan;100475.28;5033128;28;1308;-33
2022/09/16 05:13:45;;;;;;;;;;;;;;;26.81;nan;100472.59;5033392;28;778;-34
2022/09/16 05:16:16;;;;;;;;;;;;;;;26.82;nan;100468.09;5033680;28;1353;-34
2022/09/16 05:18:44;;;;;;;;;;;;;;;26.83;nan;100472.47;5033185;28;941;-31
2022/09/16 05:21:12;;;;;;;;;;;;;;;26.82;nan;100478.78;5031406;28;1296;-34
2022/09/16 05:23:39;;;;;;;;;;;;;;;26.82;nan;100476.13;5033370;28;1993;-35
2022/09/16 05:26:13;;;;;;;;;;;;;;;26.81;nan;100483.28;5033030;28;1359;-35
2022/09/16 05:28:40;;;;;;;;;;;;;;;26.83;nan;100491.19;5032834;28;2150;-33
2022/09/16 05:31:11;;;;;;;;;;;;;;;26.82;nan;100484.97;5041678;28;1252;-35
2022/09/16 05:33:39;;;;;;;;;;;;;;;26.84;nan;100487.53;5053386;28;1182;-35
2022/09/16 05:36:06;;;;;;;;;;;;;;;26.83;nan;100493.84;5052577;28;1485;-34
2022/09/16 05:38:33;;;;;;;;;;;;;;;26.83;nan;100494.69;5032743;28;1177;-34
2022/09/16 05:41:01;;;;;;;;;;;;;;;26.82;nan;100506.38;5032761;28;1224;-31
2022/09/16 05:43:27;;;;;;;;;;;;;;;26.82;nan;100498.34;5033208;28;1918;-34
2022/09/16 05:45:54;;;;;;;;;;;;;;;26.84;nan;100508.91;5033098;28;1209;-31
2022/09/16 05:48:22;;;;;;;;;;;;;;;26.83;nan;100504.53;5052010;28;1390;-32
2022/09/16 05:50:56;;;;;;;;;;;;;;;26.82;nan;100505.50;5052711;28;1371;-32
2022/09/16 05:53:24;;;;;;;;;;;;;;;26.82;nan;100508.19;5053242;28;1571;-35
2022/09/16 05:55:57;;;;;;;;;;;;;;;26.82;nan;100510.84;5033226;28;1253;-36
2022/09/16 05:58:25;;;;;;;;;;;;;;;26.84;nan;100514.25;5033180;28;1229;-31
2022/09/16 06:00:57;;;;;;;;;;;;;;;26.84;nan;100514.25;5040454;28;1597;-31
2022/09/16 06:03:24;;;;;;;;;;;;;;;26.83;nan;100517.91;5043255;28;1917;-34
2022/09/16 06:05:50;;;;;;;;;;;;;;;26.83;nan;100517.91;5052554;28;1181;-35
2022/09/16 06:08:17;;;;;;;;;;;;;;;26.83;nan;100515.22;5050211;28;1489;-33
2022/09/16 06:10:44;;;;;;;;;;;;;;;26.81;nan;100517.22;5052442;28;1216;-34
2022/09/16 06:13:10;;;;;;;;;;;;;;;26.84;nan;100508.91;5050720;28;1493;-33
2022/09/16 06:15:37;;;;;;;;;;;;;;;26.85;nan;100514.09;5047144;28;1238;-29
2022/09/16 06:18:04;;;;;;;;;;;;;;;26.84;nan;100507.03;5062887;28;1415;-28
2022/09/16 06:20:32;;;;;;;;;;;;;;;26.85;nan;100513.25;5049289;28;1280;-31
2022/09/16 06:22:58;;;;;;;;;;;;;;;26.86;nan;100512.25;5048201;28;1923;-32
2022/09/16 06:25:25;;;;;;;;;;;;;;;26.89;nan;100514.66;5049926;28;1582;-30
2022/09/16 06:27:52;;;;;;;;;;;;;;;26.93;nan;100518.72;5050553;28;1120;-29
2022/09/16 06:30:19;;;;;;;;;;;;;;;26.95;nan;100522.94;5050859;28;1276;-30
2022/09/16 06:32:45;;;;;;;;;;;;;;;26.96;nan;100519.25;5053375;28;1172;-26
2022/09/16 06:35:12;;;;;;;;;;;;;;;26.98;nan;100519.13;5054490;28;1248;-29
2022/09/16 06:37:39;;;;;;;;;;;;;;;26.98;nan;100525.31;5054354;28;1160;-26
2022/09/16 06:40:06;;;;;;;;;;;;;;;26.99;nan;100523.50;5053226;28;1282;-32
2022/09/16 06:42:32;;;;;;;;;;;;;;;27.00;nan;100522.47;5053661;28;1266;-30
2022/09/16 06:44:59;;;;;;;;;;;;;;;27.02;nan;100523.19;5053280;28;1981;-28
2022/09/16 06:47:26;;;;;;;;;;;;;;;26.94;nan;100515.88;5080770;28;1220;-33
2022/09/16 06:49:52;;;;;;;;;;;;;;;26.94;nan;100520.38;5046046;28;1612;-30
2022/09/16 06:52:19;;;;;;;;;;;;;;;26.95;nan;100522.09;5054961;28;1294;-30
2022/09/16 06:54:46;;;;;;;;;;;;;;;26.95;nan;100522.09;5054856;28;1178;-27
2022/09/16 06:57:13;;;;;;;;;;;;;;;26.95;nan;100516.72;5054748;28;1074;-32
2022/09/16 06:59:40;;;;;;;;;;;;;;;26.94;nan;100521.22;5069464;28;1284;-33
2022/09/16 07:02:08;;;;;;;;;;;;;;;26.94;nan;100531.06;5054862;28;1102;-28
2022/09/16 07:04:35;;;;;;;;;;;;;;;26.92;nan;100523.22;5053811;28;1973;-32
2022/09/16 07:07:02;;;;;;;;;;;;;;;26.89;nan;100526.19;5054605;28;1060;-29
2022/09/16 07:09:35;;;;;;;;;;;;;;;26.86;nan;100528.28;5054626;28;1343;-33
2022/09/16 07:12:02;;;;;;;;;;;;;;;26.90;nan;100537.72;5054828;28;1169;-27
2022/09/16 07:14:31;;;;;;;;;;;;;;;26.91;nan;100528.69;5054550;28;1236;-29
2022/09/16 07:16:59;;;;;;;;;;;;;;;26.89;nan;100538.69;5054464;28;1000;-29
2022/09/16 07:19:26;;;;;;;;;;;;;;;26.90;nan;100541.22;5065228;28;1536;-30
2022/09/16 07:21:53;;;;;;;;;;;;;;;26.91;nan;100540.22;5054072;28;1103;-29
2022/09/16 07:24:19;;;;;;;;;;;;;;;26.89;nan;100544.03;5039175;28;1980;-28
2022/09/16 07:26:46;;;;;;;;;;;;;;;26.91;nan;100542.06;5054106;28;1131;-26
2022/09/16 07:29:15;;;;;;;;;;;;;;;26.91;nan;100542.91;5054188;28;816;-29
2022/09/16 07:31:41;;;;;;;;;;;;;;;26.88;nan;100548.53;5054171;28;1273;-30
2022/09/16 07:34:09;;;;;;;;;;;;;;;26.88;nan;100550.38;5054244;28;835;-27
2022/09/16 07:36:37;;;;;;;;;;;;;;;26.87;nan;100548.69;5053835;28;1237;-26
2022/09/16 07:39:04;;;;;;;;;;;;;;;26.90;nan;100540.41;5054446;28;769;-30
2022/09/16 07:41:33;;;;;;;;;;;;;;;26.89;nan;100549.38;5053567;28;1240;-31
2022/09/16 07:44:00;;;;;;;;;;;;;;;26.87;nan;100546.03;5053766;28;1930;-32
2022/09/16 07:46:28;;;;;;;;;;;;;;;26.87;nan;100543.34;5053972;28;1359;-30
2022/09/16 07:48:55;;;;;;;;;;;;;;;26.87;nan;100556.72;5054617;28;1383;-29
2022/09/16 07:51:23;;;;;;;;;;;;;;;26.86;nan;100555.88;5052235;28;1299;-28
2022/09/16 07:53:53;;;;;;;;;;;;;;;26.85;nan;100558.66;5050811;28;1608;-28
2022/09/16 07:56:22;;;;;;;;;;;;;;;26.83;nan;100566.00;5049200;28;1197;-30
2022/09/16 07:58:48;;;;;;;;;;;;;;;26.88;nan;100572.59;5053995;28;777;-32
2022/09/16 08:01:17;;;;;;;;;;;;;;;26.89;nan;100566.28;5053092;28;1229;-28
2022/09/16 08:03:44;;;;;;;;;;;;;;;26.89;nan;100578.78;5053842;28;1914;-27
2022/09/16 08:06:15;;;;;;;;;;;;;;;26.89;nan;100581.47;5050459;28;1185;-26
2022/09/16 08:08:42;;;;;;;;;;;;;;;26.88;nan;100577.94;5053095;28;664;-33
2022/09/16 08:11:11;;;;;;;;;;;;;;;26.91;nan;100574.13;5050336;28;1252;-27
2022/09/16 08:13:38;;;;;;;;;;;;;;;26.94;nan;100561.31;5044572;28;1229;-34
2022/09/16 08:16:06;;;;;;;;;;;;;;;26.93;nan;100577.53;5049412;28;1252;-30
2022/09/16 08:18:33;;;;;;;;;;;;;;;26.96;nan;100572.69;5046593;28;1244;-25
2022/09/16 08:21:07;;;;;;;;;;;;;;;27.00;nan;100578.59;5052226;28;1209;-28
2022/09/16 08:23:35;;;;;;;;;;;;;;;27.02;nan;100576.66;5053104;28;2044;-30
2022/09/16 08:26:18;;;;;;;;;;;;;;;27.03;nan;100578.31;5053364;28;1256;-31
2022/09/16 08:28:47;;;;;;;;;;;;;;;27.04;nan;100569.31;5052704;28;942;-30
2022/09/16 08:31:35;;;;;;;;;;;;;;;27.07;nan;100566.34;5052541;28;1402;-28
2022/09/16 08:34:02;;;;;;;;;;;;;;;26.97;nan;100568.22;5053329;28;737;-33
2022/09/16 08:36:29;;;;;;;;;;;;;;;27.01;nan;100566.94;5052552;28;1296;-31
2022/09/16 08:38:56;;;;;;;;;;;;;;;26.98;nan;100565.41;5053386;28;862;-29
2022/09/16 08:41:41;;;;;;;;;;;;;;;26.98;nan;100569.91;5052881;28;1181;-32
2022/09/16 08:44:07;;;;;;;;;;;;;;;27.05;nan;100577.19;5053175;28;1914;-27
2022/09/16 08:46:48;;;;;;;;;;;;;;;27.05;nan;100579.84;5057124;28;1355;-29
2022/09/16 08:49:26;;;;;;;;;;;;;;;27.01;nan;100580.31;5052885;28;1566;-31
2022/09/16 08:51:55;;;;;;;;;;;;;;;27.02;nan;100585.50;5048004;28;1192;-31
2022/09/16 08:54:35;;;;;;;;;;;;;;;27.03;nan;100586.34;5050052;28;1138;-28
2022/09/16 08:57:03;;;;;;;;;;;;;;;26.98;nan;100584.13;5048158;28;1116;-29
2022/09/16 08:59:38;;;;;;;;;;;;;;;27.00;nan;100590.16;5051308;28;1300;-31
2022/09/16 09:02:37;;;;;;;;;;;;;;;27.02;nan;100582.81;5050952;28;1138;-29
2022/09/16 09:05:15;;;;;;;;;;;;;;;26.98;nan;100575.25;5050219;28;1974;-32
2022/09/16 09:07:52;;;;;;;;;;;;;;;26.99;nan;100572.41;5035364;28;1081;-35
2022/09/16 09:10:24;;;;;;;;;;;;;;;26.98;nan;100560.06;5051760;28;1284;-27
2022/09/16 09:12:51;;;;;;;;;;;;;;;27.01;nan;100559.78;5052955;28;1098;-30
2022/09/16 09:15:19;;;;;;;;;;;;;;;26.98;nan;100561.88;5052710;28;1481;-32
2022/09/16 09:17:54;;;;;;;;;;;;;;;26.98;nan;100559.22;5052746;28;1341;-31
2022/09/16 09:20:24;;;;;;;;;;;;;;;26.99;nan;100556.38;5052391;28;1509;-32
2022/09/16 09:23:05;;;;;;;;;;;;;;;27.01;nan;100554.44;5052938;28;1032;-26
2022/09/16 09:25:35;;;;;;;;;;;;;;;27.00;nan;100557.22;5052139;28;1910;-27
2022/09/16 09:28:22;;;;;;;;;;;;;;;26.98;nan;100561.88;5052517;28;1020;-35
2022/09/16 09:31:02;;;;;;;;;;;;;;;27.00;nan;100562.56;5051731;28;1285;-29
2022/09/16 09:33:42;;;;;;;;;;;;;;;27.04;nan;100564.81;5052747;28;1246;-28
2022/09/16 09:36:12;;;;;;;;;;;;;;;27.10;nan;100574.94;5051984;28;1331;-28
2022/09/16 09:38:38;;;;;;;;;;;;;;;27.09;nan;100575.91;5052337;28;986;-30
2022/09/16 09:41:22;;;;;;;;;;;;;;;27.16;nan;100584.19;5050243;28;1225;-32
2022/09/16 09:43:56;;;;;;;;;;;;;;;27.12;nan;100582.78;5047206;28;1959;-30
2022/09/16 09:46:25;;;;;;;;;;;;;;;27.14;nan;100575.50;5052131;28;1257;-31
2022/09/16 09:49:10;;;;;;;;;;;;;;;27.15;nan;100572.66;5059047;28;1485;-34
2022/09/16 09:51:41;;;;;;;;;;;;;;;27.10;nan;100574.09;5056534;28;1292;-30
2022/09/16 09:54:23;;;;;;;;;;;;;;;27.11;nan;100567.75;5050764;28;680;-30
2022/09/16 09:56:52;;;;;;;;;;;;;;;27.15;nan;100571.81;5051105;28;1115;-29
2022/09/16 09:59:36;;;;;;;;;;;;;;;27.18;nan;100566.16;5050444;28;1181;-27
2022/09/16 10:02:10;;;;;;;;;;;;;;;27.19;nan;100569.69;5049320;28;1058;-31
2022/09/16 10:04:37;;;;;;;;;;;;;;;27.17;nan;100553.81;5044135;28;1902;-26
2022/09/16 10:07:04;;;;;;;;;;;;;;;27.21;nan;100557.84;5053220;28;1074;-24
2022/09/16 10:09:32;;;;;;;;;;;;;;;27.24;nan;100556.75;5041887;28;1308;-26
2022/09/16 10:11:59;;;;;;;;;;;;;;;27.25;nan;100566.44;5087668;28;1053;-30
2022/09/16 10:14:34;;;;;;;;;;;;;;;27.26;nan;100574.31;5087927;28;1256;-24
2022/09/16 10:17:02;;;;;;;;;;;;;;;27.26;nan;100581.50;5055584;28;1115;-34
2022/09/16 10:19:33;;;;;;;;;;;;;;;27.25;nan;100596.69;5054472;28;1280;-27
2022/09/16 10:22:08;;;;;;;;;;;;;;;27.26;nan;100594.88;5055228;28;1095;-35
2022/09/16 10:24:36;;;;;;;;;;;;;;;27.28;nan;100604.44;5055420;28;1914;-33
2022/09/16 10:27:35;;;;;;;;;;;;;;;27.31;nan;100605.97;5055386;28;1083;-27
2022/09/16 10:30:07;;;;;;;;;;;;;;;27.33;nan;100620.06;5053816;28;1303;-34
2022/09/16 10:32:39;;;;;;;;;;;;;;;27.32;nan;100627.22;5055510;28;1092;-29
2022/09/16 10:35:06;;;;;;;;;;;;;;;27.31;nan;100627.34;5054874;28;1439;-25
2022/09/16 10:37:33;;;;;;;;;;;;;;;27.32;nan;100621.03;5055521;28;1038;-31
2022/09/16 10:40:02;;;;;;;;;;;;;;;27.33;nan;100612.84;5054040;28;1563;-32
2022/09/16 10:42:29;;;;;;;;;;;;;;;27.36;nan;100617.09;5043938;28;1651;-32
2022/09/16 10:45:09;;;;;;;;;;;;;;;27.38;nan;100610.59;5052394;28;1946;-34
2022/09/16 10:47:37;;;;;;;;;;;;;;;27.40;nan;100605.94;5055408;28;1118;-31
2022/09/16 10:50:05;;;;;;;;;;;;;;;27.38;nan;100610.59;5054323;28;1327;-33
2022/09/16 10:52:42;;;;;;;;;;;;;;;27.34;nan;100601.16;5055259;28;1116;-34
2022/09/16 10:55:15;;;;;;;;;;;;;;;27.34;nan;100600.31;5054510;28;1264;-34
2022/09/16 10:57:43;;;;;;;;;;;;;;;27.34;nan;100603.84;5048695;28;1852;-28
2022/09/16 11:00:33;;;;;;;;;;;;;;;27.34;nan;100608.34;5048579;28;1300;-29
2022/09/16 11:03:00;;;;;;;;;;;;;;;27.38;nan;100599.91;5036686;28;1545;-28
2022/09/16 11:05:32;;;;;;;;;;;;;;;27.37;nan;100597.34;5071228;28;1914;-33
2022/09/16 11:08:18;;;;;;;;;;;;;;;27.37;nan;100586.66;5033842;28;1289;-31
2022/09/16 11:10:45;;;;;;;;;;;;;;;27.38;nan;100589.19;5032862;28;1264;-29
2022/09/16 11:13:32;;;;;;;;;;;;;;;27.37;nan;100586.66;5033620;28;1467;-36
2022/09/16 11:16:08;;;;;;;;;;;;;;;27.37;nan;100575.97;5032624;28;1265;-29
2022/09/16 11:18:34;;;;;;;;;;;;;;;27.34;nan;100577.09;5032815;28;1834;-30
2022/09/16 11:21:16;;;;;;;;;;;;;;;27.36;nan;100585.00;5039323;28;1225;-33
2022/09/16 11:24:06;;;;;;;;;;;;;;;27.37;nan;100586.66;5052892;28;695;-34
2022/09/16 11:26:58;;;;;;;;;;;;;;;27.36;nan;100585.00;5051935;28;1967;-34
2022/09/16 11:29:43;;;;;;;;;;;;;;;27.37;nan;100583.97;5051509;28;1209;-30
2022/09/16 11:32:29;;;;;;;;;;;;;;;27.37;nan;100578.63;5051840;28;1037;-31
2022/09/16 11:35:02;;;;;;;;;;;;;;;27.33;nan;100580.75;5051284;28;1581;-31
2022/09/16 11:37:55;;;;;;;;;;;;;;;27.33;nan;100582.63;5051990;28;1037;-31
2022/09/16 11:40:41;;;;;;;;;;;;;;;27.33;nan;100579.94;5058323;28;1450;-26
2022/09/16 11:43:25;;;;;;;;;;;;;;;27.33;nan;100561.22;5052983;28;1121;-33
2022/09/16 11:45:52;;;;;;;;;;;;;;;27.31;nan;100557.81;5052371;28;1979;-34
2022/09/16 11:48:32;;;;;;;;;;;;;;;27.30;nan;100554.31;5052191;28;1621;-31
2022/09/16 11:51:05;;;;;;;;;;;;;;;27.30;nan;100546.28;5052173;28;1217;-34
2022/09/16 11:53:41;;;;;;;;;;;;;;;27.30;nan;100540.13;5052883;28;1185;-34
2022/09/16 11:56:16;;;;;;;;;;;;;;;27.32;nan;100547.00;5054007;28;1296;-33
2022/09/16 11:58:57;;;;;;;;;;;;;;;27.29;nan;100541.94;5054106;28;729;-31
2022/09/16 12:01:24;;;;;;;;;;;;;;;27.30;nan;100546.28;5054045;28;1217;-33
2022/09/16 12:03:54;;;;;;;;;;;;;;;27.31;nan;100539.94;5053510;28;733;-34
2022/09/16 12:06:23;;;;;;;;;;;;;;;27.28;nan;100540.25;5054052;28;1914;-35
2022/09/16 12:09:04;;;;;;;;;;;;;;;27.27;nan;100527.03;5053935;28;922;-36
2022/09/16 12:11:35;;;;;;;;;;;;;;;27.26;nan;100511.97;5053858;28;1256;-34
2022/09/16 12:14:05;;;;;;;;;;;;;;;27.26;nan;100507.47;5053987;28;890;-34
2022/09/16 12:16:39;;;;;;;;;;;;;;;27.24;nan;100512.09;5053891;28;1268;-32
2022/09/16 12:19:10;;;;;;;;;;;;;;;27.26;nan;100507.47;5054080;28;1526;-31
2022/09/16 12:21:40;;;;;;;;;;;;;;;27.26;nan;100509.31;5054173;28;1397;-34
2022/09/16 12:24:10;;;;;;;;;;;;;;;27.25;nan;100511.13;5085587;28;875;-34
2022/09/16 12:26:43;;;;;;;;;;;;;;;27.25;nan;100508.44;5053821;28;1914;-31
2022/09/16 12:29:17;;;;;;;;;;;;;;;27.28;nan;100518.00;5053438;28;691;-35
2022/09/16 12:31:44;;;;;;;;;;;;;;;27.27;nan;100509.13;5053456;28;1081;-32
2022/09/16 12:34:21;;;;;;;;;;;;;;;27.27;nan;100519.84;5052974;28;741;-35
2022/09/16 12:36:54;;;;;;;;;;;;;;;27.27;nan;100521.69;5052412;28;1117;-35
2022/09/16 12:39:21;;;;;;;;;;;;;;;27.28;nan;100526.03;5053411;28;1331;-34
2022/09/16 12:41:49;;;;;;;;;;;;;;;27.27;nan;100511.81;5053241;28;1132;-31
2022/09/16 12:44:34;;;;;;;;;;;;;;;27.29;nan;100506.31;5053602;28;917;-33
2022/09/16 12:47:01;;;;;;;;;;;;;;;27.27;nan;100505.66;5053431;28;1117;-34
2022/09/16 12:49:30;;;;;;;;;;;;;;;27.27;nan;100506.47;5053063;28;1390;-34
2022/09/16 12:51:57;;;;;;;;;;;;;;;27.27;nan;100511.00;5053193;28;953;-35
2022/09/16 12:54:33;;;;;;;;;;;;;;;27.29;nan;100503.66;5053472;28;1344;-33
2022/09/16 12:57:25;;;;;;;;;;;;;;;27.28;nan;100508.16;5053216;28;1096;-33
2022/09/16 13:00:11;;;;;;;;;;;;;;;27.29;nan;100511.69;5052867;28;1367;-32
2022/09/16 13:02:41;;;;;;;;;;;;;;;27.30;nan;100513.38;5052828;28;1279;-33
2022/09/16 13:05:23;;;;;;;;;;;;;;;27.29;nan;100501.81;5053096;28;1906;-38
2022/09/16 13:07:52;;;;;;;;;;;;;;;27.29;nan;100506.31;5053155;28;1020;-33
2022/09/16 13:10:20;;;;;;;;;;;;;;;27.29;nan;100496.47;5052771;28;1295;-34
2022/09/16 13:13:06;;;;;;;;;;;;;;;27.29;nan;100487.59;5052976;28;1119;-32
2022/09/16 13:15:38;;;;;;;;;;;;;;;27.27;nan;100482.41;5052699;28;1197;-29
2022/09/16 13:18:09;;;;;;;;;;;;;;;27.27;nan;100479.72;5052572;28;990;-35
2022/09/16 13:20:39;;;;;;;;;;;;;;;27.26;nan;100470.03;5052608;28;1234;-33
2022/09/16 13:23:05;;;;;;;;;;;;;;;27.25;nan;100471.00;5052807;28;1120;-34
2022/09/16 13:25:51;;;;;;;;;;;;;;;27.25;nan;100465.66;5052325;28;1887;-33
2022/09/16 13:28:20;;;;;;;;;;;;;;;27.25;nan;100465.66;5052619;28;1015;-31